Time;durP1;ratioP1;P1;durP2;ratioP2;P2;SDS_P1;SDS_P2;PMS_P1;PMS_P2;Temp;Humidity;BMP_temperature;BMP_pressure;BME280_temperature;BME280_humidity;BME280_pressure;Samples;Min_cycle;Max_cycle;Signal;HPM_P1;HPM_P2
2023/08/30 00:01:49;;;;;;;10.43;7.70;;;;;;;22.12;100.00;96488.09;5050341;28;20025;-74
2023/08/30 00:04:14;;;;;;;20.05;8.02;;;;;;;22.09;100.00;96477.59;5015988;28;20404;-75
2023/08/30 00:06:40;;;;;;;14.10;7.55;;;;;;;22.06;100.00;96478.00;5037399;28;20029;-74
2023/08/30 00:09:05;;;;;;;9.95;7.22;;;;;;;22.07;100.00;96474.25;5036463;28;20064;-73
2023/08/30 00:11:32;;;;;;;14.10;7.35;;;;;;;22.05;100.00;96476.31;5041290;28;20071;-75
2023/08/30 00:14:05;;;;;;;13.77;7.80;;;;;;;22.06;100.00;96482.59;5047183;28;20025;-75
2023/08/30 00:16:32;;;;;;;15.00;7.65;;;;;;;22.08;100.00;96491.44;5035964;28;20116;-75
2023/08/30 00:18:57;;;;;;;11.57;7.53;;;;;;;22.05;100.00;96489.09;5037309;28;20461;-74
2023/08/30 00:21:23;;;;;;;11.98;7.00;;;;;;;21.98;100.00;96469.94;5048941;28;20025;-74
2023/08/30 00:23:48;;;;;;;13.68;7.60;;;;;;;21.98;100.00;96464.50;5052904;28;20034;-75
2023/08/30 00:26:14;;;;;;;15.18;7.78;;;;;;;22.01;100.00;96463.25;5025893;28;20496;-74
2023/08/30 00:28:39;;;;;;;14.40;7.50;;;;;;;21.96;100.00;96450.25;5048973;28;20025;-74
2023/08/30 00:31:05;;;;;;;12.18;7.80;;;;;;;21.91;100.00;96441.78;5045690;28;20025;-73
2023/08/30 00:33:30;;;;;;;23.42;8.05;;;;;;;21.95;100.00;96445.81;5048234;28;20049;-73
2023/08/30 00:35:59;;;;;;;12.73;7.38;;;;;;;21.88;100.00;96444.00;5029825;28;20026;-74
2023/08/30 00:38:26;;;;;;;15.20;7.70;;;;;;;21.78;100.00;96460.66;5012127;28;20033;-75
2023/08/30 00:40:52;;;;;;;15.30;8.27;;;;;;;21.74;100.00;96467.53;5028737;28;20070;-74
2023/08/30 00:43:18;;;;;;;12.23;7.57;;;;;;;21.66;100.00;96474.97;5038429;28;20033;-73
2023/08/30 00:45:44;;;;;;;12.85;7.60;;;;;;;21.67;100.00;96488.38;5044128;28;20093;-74
2023/08/30 00:48:10;;;;;;;13.63;7.90;;;;;;;21.61;100.00;96489.13;5046144;28;20381;-74
2023/08/30 00:50:36;;;;;;;13.32;7.38;;;;;;;21.62;100.00;96491.66;5012002;28;20053;-73
2023/08/30 00:53:06;;;;;;;10.45;7.88;;;;;;;21.65;100.00;96493.19;5045944;28;20024;-74
2023/08/30 00:55:35;;;;;;;12.68;6.90;;;;;;;21.63;100.00;96487.91;5043666;28;20108;-73
2023/08/30 00:58:02;;;;;;;16.80;7.97;;;;;;;21.64;100.00;96491.47;5030173;28;20037;-74
2023/08/30 01:00:29;;;;;;;14.38;6.78;;;;;;;21.66;100.00;96486.66;5035344;28;20032;-74
2023/08/30 01:02:56;;;;;;;8.63;6.47;;;;;;;21.62;100.00;96486.19;5038079;28;20115;-74
2023/08/30 01:05:22;;;;;;;12.30;7.50;;;;;;;21.61;100.00;96479.09;5034663;28;20030;-74
2023/08/30 01:07:48;;;;;;;10.15;6.95;;;;;;;21.59;100.00;96485.75;5023743;28;20028;-74
2023/08/30 01:10:14;;;;;;;11.68;6.97;;;;;;;21.64;100.00;96488.75;5043860;28;20021;-74
2023/08/30 01:12:50;;;;;;;11.20;7.40;;;;;;;21.67;100.00;96480.19;5038602;28;20067;-75
2023/08/30 01:15:19;;;;;;;10.95;6.72;;;;;;;21.68;100.00;96486.50;5028327;28;20029;-74
2023/08/30 01:17:47;;;;;;;10.13;6.55;;;;;;;21.50;100.00;96484.19;5029912;28;20014;-74
2023/08/30 01:20:16;;;;;;;11.55;6.70;;;;;;;21.44;100.00;96493.09;5029646;28;20116;-73
2023/08/30 01:23:10;;;;;;;11.70;7.63;;;;;;;21.25;100.00;96490.94;5041025;28;20033;-73
2023/08/30 01:25:41;;;;;;;14.18;7.53;;;;;;;21.11;100.00;96486.31;5023533;28;20123;-74
2023/08/30 01:28:08;;;;;;;13.38;6.97;;;;;;;21.03;100.00;96495.38;5039528;28;20377;-76
2023/08/30 01:30:34;;;;;;;11.40;7.22;;;;;;;20.97;100.00;96490.69;5025538;28;20025;-74
2023/08/30 01:33:01;;;;;;;13.05;7.57;;;;;;;21.01;100.00;96502.88;5028520;28;20462;-75
2023/08/30 01:35:32;;;;;;;11.90;7.40;;;;;;;21.02;100.00;96502.69;5048055;28;20036;-75
2023/08/30 01:37:59;;;;;;;9.68;6.93;;;;;;;21.05;100.00;96491.44;5045316;28;20447;-75
2023/08/30 01:40:25;;;;;;;12.40;7.32;;;;;;;21.14;100.00;96494.94;5040827;28;20400;-74
2023/08/30 01:42:50;;;;;;;12.30;6.82;;;;;;;21.18;100.00;96492.69;5044311;28;20035;-74
2023/08/30 01:45:17;;;;;;;13.60;7.13;;;;;;;21.20;100.00;96487.91;5027850;28;20030;-75
2023/08/30 01:47:43;;;;;;;12.82;7.70;;;;;;;21.19;100.00;96488.97;5038691;28;20033;-75
2023/08/30 01:50:10;;;;;;;9.93;6.85;;;;;;;21.25;100.00;96499.09;5035901;28;20026;-75
2023/08/30 01:52:36;;;;;;;17.92;7.07;;;;;;;21.26;100.00;96503.47;5024702;28;20472;-75
2023/08/30 01:55:02;;;;;;;10.73;6.90;;;;;;;21.21;100.00;96503.19;5047461;28;20403;-75
2023/08/30 01:57:28;;;;;;;11.10;7.00;;;;;;;21.13;100.00;96492.44;5043414;28;20480;-73
2023/08/30 01:59:53;;;;;;;19.25;7.57;;;;;;;21.19;100.00;96483.53;5027477;28;20018;-74
2023/08/30 02:02:19;;;;;;;12.52;8.00;;;;;;;21.20;100.00;96482.47;5030474;28;20060;-74
2023/08/30 02:04:44;;;;;;;11.80;7.75;;;;;;;21.14;100.00;96475.91;5038374;28;20024;-75
2023/08/30 02:07:21;;;;;;;15.95;7.72;;;;;;;21.06;100.00;96474.09;5039934;28;20420;-74
2023/08/30 02:09:58;;;;;;;11.00;8.23;;;;;;;21.01;100.00;96476.50;5019680;28;20536;-75
2023/08/30 02:12:27;;;;;;;13.50;7.70;;;;;;;21.00;100.00;96488.44;5046895;28;20033;-75
2023/08/30 02:14:53;;;;;;;12.13;8.20;;;;;;;20.95;100.00;96499.00;5041809;28;20174;-75
2023/08/30 02:17:19;;;;;;;12.88;7.60;;;;;;;20.91;100.00;96503.16;5042192;28;20503;-75
2023/08/30 02:19:45;;;;;;;15.27;8.68;;;;;;;20.99;100.00;96500.34;5026906;28;20029;-76
2023/08/30 02:22:11;;;;;;;14.80;8.77;;;;;;;21.06;100.00;96495.84;5027228;28;20160;-75
2023/08/30 02:24:36;;;;;;;16.27;8.38;;;;;;;21.10;100.00;96485.47;5007998;28;20068;-75
2023/08/30 02:27:02;;;;;;;13.85;7.90;;;;;;;21.16;100.00;96483.88;5041764;28;20037;-75
2023/08/30 02:29:27;;;;;;;14.85;7.70;;;;;;;21.22;100.00;96478.56;5045326;28;20093;-74
2023/08/30 02:31:53;;;;;;;12.40;8.23;;;;;;;21.31;100.00;96471.13;5037645;28;20029;-74
2023/08/30 02:34:18;;;;;;;13.45;8.02;;;;;;;21.38;100.00;96477.53;5020455;28;20131;-75
2023/08/30 02:36:44;;;;;;;12.90;7.97;;;;;;;21.39;100.00;96484.63;5041350;28;20563;-75
2023/08/30 02:39:11;;;;;;;15.18;8.80;;;;;;;21.34;100.00;96498.81;5035450;28;20117;-76
2023/08/30 02:41:37;;;;;;;14.05;7.80;;;;;;;21.40;100.00;96502.66;5043527;27;20490;-75
2023/08/30 02:44:03;;;;;;;11.73;7.82;;;;;;;21.46;100.00;96497.31;5037127;28;20041;-74
2023/08/30 02:46:28;;;;;;;14.02;8.25;;;;;;;21.55;100.00;96500.78;5043995;28;20036;-75
2023/08/30 02:48:55;;;;;;;13.35;8.18;;;;;;;21.56;100.00;96500.56;5038902;28;20085;-75
2023/08/30 02:51:20;;;;;;;16.27;7.80;;;;;;;21.54;100.00;96493.63;5019882;28;20041;-73
2023/08/30 02:53:46;;;;;;;16.70;7.80;;;;;;;21.46;100.00;96491.03;5036916;28;20400;-73
2023/08/30 02:56:11;;;;;;;16.23;7.53;;;;;;;21.48;100.00;96489.78;5033733;28;20028;-76
2023/08/30 02:58:37;;;;;;;16.30;8.48;;;;;;;21.41;100.00;96490.75;5032244;28;20489;-74
2023/08/30 03:01:21;;;;;;;20.20;8.60;;;;;;;21.38;100.00;96504.72;5014677;28;20029;-75
2023/08/30 03:03:47;;;;;;;31.35;11.18;;;;;;;21.23;100.00;96501.13;5039485;28;20025;-75
2023/08/30 03:06:14;;;;;;;21.73;10.40;;;;;;;21.11;100.00;96510.78;5046675;28;20528;-75
2023/08/30 03:08:39;;;;;;;18.92;9.30;;;;;;;21.00;100.00;96507.47;5029117;28;20496;-75
2023/08/30 03:11:12;;;;;;;18.05;8.75;;;;;;;20.86;100.00;96510.13;5040776;28;20032;-75
2023/08/30 03:13:38;;;;;;;13.13;8.65;;;;;;;20.73;100.00;96510.78;5054229;28;20522;-75
2023/08/30 03:16:14;;;;;;;18.33;8.73;;;;;;;20.74;100.00;96515.19;5030800;28;20037;-74
2023/08/30 03:18:40;;;;;;;15.75;9.32;;;;;;;20.74;100.00;96511.59;5029936;28;20376;-74
2023/08/30 03:21:06;;;;;;;16.30;8.63;;;;;;;20.59;100.00;96508.84;5046538;28;20025;-75
2023/08/30 03:23:32;;;;;;;11.80;8.38;;;;;;;20.49;100.00;96503.66;5014820;28;20518;-75
2023/08/30 03:26:07;;;;;;;17.42;8.52;;;;;;;20.47;100.00;96507.59;5013668;28;20037;-75
2023/08/30 03:28:32;;;;;;;18.20;8.77;;;;;;;20.50;100.00;96507.22;5038536;28;20508;-75
2023/08/30 03:30:58;;;;;;;20.75;9.52;;;;;;;20.54;100.00;96509.41;5024593;28;20041;-75
2023/08/30 03:33:23;;;;;;;14.77;9.05;;;;;;;20.60;100.00;96516.00;5043498;28;20041;-74
2023/08/30 03:35:49;;;;;;;23.25;8.93;;;;;;;20.60;100.00;96499.69;5039679;28;20127;-76
2023/08/30 03:38:14;;;;;;;15.07;7.85;;;;;;;20.64;100.00;96498.28;5037122;28;20033;-75
2023/08/30 03:40:40;;;;;;;14.18;8.90;;;;;;;20.63;100.00;96499.31;5038075;28;20019;-75
2023/08/30 03:43:06;;;;;;;16.00;9.23;;;;;;;20.61;100.00;96500.53;5033997;28;20449;-75
2023/08/30 03:45:37;;;;;;;17.27;9.20;;;;;;;20.56;100.00;96484.75;5038174;28;20401;-75
2023/08/30 03:48:04;;;;;;;14.48;9.30;;;;;;;20.53;100.00;96487.84;5040756;28;20085;-75
2023/08/30 03:50:29;;;;;;;14.40;9.13;;;;;;;20.56;100.00;96503.78;5028479;28;20044;-75
2023/08/30 03:52:55;;;;;;;22.42;9.55;;;;;;;20.49;100.00;96494.66;5043290;28;20021;-75
2023/08/30 03:55:22;;;;;;;15.00;9.05;;;;;;;20.49;100.00;96497.38;5016824;28;20087;-75
2023/08/30 03:57:48;;;;;;;20.27;9.50;;;;;;;20.46;100.00;96495.03;5037216;28;20029;-75
2023/08/30 04:00:14;;;;;;;19.58;10.02;;;;;;;20.43;100.00;96495.38;5012539;28;20017;-75
2023/08/30 04:02:39;;;;;;;17.15;9.80;;;;;;;20.49;100.00;96500.09;5045055;28;20043;-73
2023/08/30 04:05:08;;;;;;;20.63;10.10;;;;;;;20.52;100.00;96497.00;5036286;28;20488;-73
2023/08/30 04:07:35;;;;;;;16.70;9.68;;;;;;;20.55;100.00;96499.38;5040956;28;20060;-73
2023/08/30 04:10:02;;;;;;;16.83;10.02;;;;;;;20.61;100.00;96501.34;5049911;28;20555;-74
2023/08/30 04:12:28;;;;;;;17.13;9.98;;;;;;;20.65;100.00;96499.13;5020233;28;20417;-74
2023/08/30 04:14:54;;;;;;;14.85;9.35;;;;;;;20.67;100.00;96495.22;5039734;28;20029;-74
2023/08/30 04:17:19;;;;;;;52.03;14.35;;;;;;;20.73;100.00;96497.19;5033114;28;20029;-74
2023/08/30 04:19:45;;;;;;;29.65;12.65;;;;;;;20.73;100.00;96505.34;5024689;28;20017;-75
2023/08/30 04:22:10;;;;;;;29.02;11.43;;;;;;;20.83;100.00;96508.63;5044478;28;20029;-75
2023/08/30 04:24:36;;;;;;;23.92;11.02;;;;;;;20.86;100.00;96500.13;5046165;28;20100;-74
2023/08/30 04:27:01;;;;;;;15.30;8.48;;;;;;;20.86;100.00;96499.25;5042610;28;20109;-74
2023/08/30 04:29:26;;;;;;;18.05;9.07;;;;;;;20.87;100.00;96507.25;5039116;28;20061;-74
2023/08/30 04:31:52;;;;;;;36.75;11.27;;;;;;;20.86;100.00;96512.84;5028460;28;20155;-75
2023/08/30 04:34:18;;;;;;;15.80;9.95;;;;;;;20.86;100.00;96510.13;5047966;28;20044;-74
2023/08/30 04:36:44;;;;;;;28.33;10.75;;;;;;;20.86;100.00;96513.72;5031872;28;20045;-74
2023/08/30 04:39:10;;;;;;;18.38;9.65;;;;;;;20.83;100.00;96505.91;5029214;28;20033;-74
2023/08/30 04:41:35;;;;;;;23.73;9.63;;;;;;;20.92;100.00;96520.28;5034084;28;20120;-74
2023/08/30 04:44:00;;;;;;;20.85;8.65;;;;;;;20.96;100.00;96521.59;5034683;28;20078;-76
2023/08/30 04:46:26;;;;;;;23.70;11.88;;;;;;;20.98;100.00;96514.94;5036765;28;20044;-75
2023/08/30 04:48:51;;;;;;;31.10;10.82;;;;;;;21.09;100.00;96524.59;5038587;28;20033;-75
2023/08/30 04:51:17;;;;;;;29.73;11.55;;;;;;;21.21;100.00;96535.84;5020466;28;20033;-75
2023/08/30 04:53:42;;;;;;;25.70;10.68;;;;;;;21.37;100.00;96532.97;5040474;28;20455;-74
2023/08/30 04:56:14;;;;;;;33.67;11.35;;;;;;;21.43;100.00;96533.06;5039691;28;20113;-75
2023/08/30 04:58:40;;;;;;;48.58;15.15;;;;;;;21.58;100.00;96539.34;5047759;28;20021;-75
2023/08/30 05:01:06;;;;;;;33.55;13.10;;;;;;;21.75;100.00;96531.81;5035277;28;20033;-75
2023/08/30 05:03:32;;;;;;;29.33;10.27;;;;;;;21.91;100.00;96534.38;5038762;28;20539;-75
2023/08/30 05:05:58;;;;;;;20.00;9.07;;;;;;;21.89;100.00;96528.28;5035965;28;20116;-74
2023/08/30 05:08:23;;;;;;;23.83;8.88;;;;;;;21.98;100.00;96529.00;5017553;28;20021;-74
2023/08/30 05:10:49;;;;;;;27.83;9.02;;;;;;;22.01;100.00;96540.38;5046044;28;20033;-75
2023/08/30 05:13:16;;;;;;;18.75;8.52;;;;;;;22.35;100.00;96557.94;5011373;28;20090;-74
2023/08/30 05:15:42;;;;;;;29.38;10.07;;;;;;;22.58;100.00;96548.56;5019748;28;20056;-76
2023/08/30 05:18:08;;;;;;;34.15;13.75;;;;;;;22.78;100.00;96546.06;5027776;28;20022;-74
2023/08/30 05:20:34;;;;;;;34.30;9.93;;;;;;;23.10;100.00;96550.97;5035967;28;20036;-74
2023/08/30 05:22:59;;;;;;;28.40;13.18;;;;;;;23.01;100.00;96543.97;5027642;28;20025;-74
2023/08/30 05:25:26;;;;;;;25.90;10.20;;;;;;;23.29;100.00;96557.63;5038585;28;20154;-74
2023/08/30 05:27:51;;;;;;;33.75;9.70;;;;;;;23.65;100.00;96554.78;5047363;28;20025;-74
2023/08/30 05:30:17;;;;;;;36.05;10.70;;;;;;;23.99;100.00;96552.03;5034991;28;20032;-75
2023/08/30 05:32:42;;;;;;;32.67;9.63;;;;;;;24.50;100.00;96546.16;5043388;28;20045;-74
2023/08/30 05:35:08;;;;;;;17.23;8.52;;;;;;;25.49;100.00;96537.03;5039859;28;20025;-74
2023/08/30 05:37:34;;;;;;;27.40;8.25;;;;;;;26.39;100.00;96527.94;5038444;28;20029;-75
2023/08/30 05:39:59;;;;;;;21.50;7.57;;;;;;;27.12;100.00;96531.91;5030349;28;20025;-75
2023/08/30 05:42:25;;;;;;;16.88;8.50;;;;;;;27.44;100.00;96510.75;5042859;28;20057;-75
2023/08/30 05:44:50;;;;;;;16.45;9.18;;;;;;;27.24;100.00;96516.41;5034746;28;20056;-75
2023/08/30 05:47:17;;;;;;;19.50;10.77;;;;;;;27.08;100.00;96525.19;5013400;28;20101;-75
2023/08/30 05:49:43;;;;;;;19.13;9.27;;;;;;;26.98;100.00;96538.56;5035323;28;20515;-74
2023/08/30 05:52:08;;;;;;;16.20;9.93;;;;;;;26.75;100.00;96541.03;5021653;28;20029;-74
2023/08/30 05:54:34;;;;;;;33.22;18.58;;;;;;;26.63;100.00;96546.38;5040524;28;20073;-72
2023/08/30 05:56:59;;;;;;;22.15;9.68;;;;;;;26.57;100.00;96538.19;5027148;28;20025;-73
2023/08/30 05:59:25;;;;;;;19.17;10.23;;;;;;;26.19;100.00;96543.63;5040256;28;20373;-74
2023/08/30 06:01:51;;;;;;;24.45;10.38;;;;;;;26.51;100.00;96542.63;5034507;28;20378;-74
2023/08/30 06:04:16;;;;;;;24.23;9.80;;;;;;;27.05;100.00;96536.63;5031229;28;20377;-74
2023/08/30 06:06:42;;;;;;;17.42;10.68;;;;;;;27.99;100.00;96520.72;5038063;28;20445;-74
2023/08/30 06:09:07;;;;;;;31.70;10.13;;;;;;;28.23;100.00;96524.53;5045762;28;20024;-74
2023/08/30 06:11:33;;;;;;;15.00;8.40;;;;;;;28.95;98.23;96528.19;5045135;28;20044;-74
2023/08/30 06:13:59;;;;;;;14.25;9.48;;;;;;;27.99;100.00;96519.91;5040367;28;20070;-74
2023/08/30 06:16:25;;;;;;;18.45;9.15;;;;;;;28.50;100.00;96525.84;5043665;28;20492;-74
2023/08/30 06:18:50;;;;;;;18.75;9.05;;;;;;;29.41;94.12;96517.28;5032005;28;20498;-74
2023/08/30 06:21:16;;;;;;;45.60;22.63;;;;;;;29.83;89.77;96511.72;5030330;28;20026;-74
2023/08/30 06:23:42;;;;;;;34.50;9.85;;;;;;;30.98;82.10;96504.19;5019141;28;20036;-75
2023/08/30 06:26:07;;;;;;;42.67;19.48;;;;;;;31.48;78.04;96499.53;5035502;28;20029;-74
2023/08/30 06:28:33;;;;;;;21.63;8.65;;;;;;;31.81;74.38;96504.22;5035230;28;20033;-74
2023/08/30 06:30:58;;;;;;;15.73;7.63;;;;;;;31.68;73.30;96504.59;5023219;28;20505;-74
2023/08/30 06:33:24;;;;;;;16.13;8.13;;;;;;;31.34;72.37;96506.50;5031401;28;20041;-74
2023/08/30 06:35:53;;;;;;;57.88;39.63;;;;;;;31.28;74.53;96517.72;5038034;28;20029;-74
2023/08/30 06:38:19;;;;;;;16.10;7.00;;;;;;;31.63;70.65;96496.19;5029599;28;20052;-74
2023/08/30 06:40:46;;;;;;;18.67;8.60;;;;;;;32.06;65.89;96498.25;5059476;27;20017;-73
2023/08/30 06:43:12;;;;;;;15.40;7.63;;;;;;;31.44;67.45;96511.38;5026604;28;20035;-73
2023/08/30 06:45:44;;;;;;;11.48;6.70;;;;;;;31.40;69.08;96516.56;5027461;28;20021;-73
2023/08/30 06:48:09;;;;;;;10.65;7.00;;;;;;;31.28;69.94;96515.81;5032890;28;20031;-73
2023/08/30 06:50:35;;;;;;;15.25;6.63;;;;;;;32.07;66.45;96500.78;5028809;28;20030;-73
2023/08/30 06:53:02;;;;;;;10.88;6.30;;;;;;;32.06;64.94;96501.84;5019348;28;20502;-73
2023/08/30 06:55:28;;;;;;;42.03;9.55;;;;;;;32.40;63.03;96507.28;5026293;28;20065;-73
2023/08/30 06:57:53;;;;;;;15.52;6.90;;;;;;;32.62;61.98;96503.44;5026154;28;20061;-73
2023/08/30 07:00:19;;;;;;;18.50;7.85;;;;;;;32.33;62.72;96504.72;5035724;28;20421;-73
2023/08/30 07:02:45;;;;;;;8.38;6.50;;;;;;;31.33;67.43;96521.41;5037949;28;20033;-73
2023/08/30 07:05:14;;;;;;;13.35;6.47;;;;;;;32.61;59.44;96475.97;5035343;28;20334;-73
2023/08/30 07:07:40;;;;;;;26.63;8.20;;;;;;;33.18;58.01;96479.09;5030338;28;20044;-73
2023/08/30 07:10:06;;;;;;;23.70;8.20;;;;;;;32.90;59.49;96488.50;5025881;28;20041;-74
2023/08/30 07:12:31;;;;;;;17.50;7.70;;;;;;;33.45;57.60;96488.19;5035378;28;20029;-74
2023/08/30 07:14:57;;;;;;;19.95;8.10;;;;;;;34.41;52.60;96480.53;5029883;28;20021;-84
2023/08/30 07:17:22;;;;;;;11.82;6.50;;;;;;;33.74;53.05;96486.81;5039235;28;20025;-86
2023/08/30 07:19:49;;;;;;;14.63;7.18;;;;;;;34.38;52.53;96486.63;5041995;28;20021;-86
2023/08/30 07:22:16;;;;;;;73.65;9.68;;;;;;;33.97;53.34;96490.25;5038748;28;20400;-85
2023/08/30 07:24:45;;;;;;;35.25;8.07;;;;;;;34.19;52.58;96483.47;5038061;28;20028;-82
2023/08/30 07:27:12;;;;;;;38.28;10.70;;;;;;;35.00;49.69;96483.78;5011060;28;20037;-83
2023/08/30 07:29:39;;;;;;;16.20;8.90;;;;;;;35.17;49.15;96481.63;5031437;28;20071;-81
2023/08/30 07:32:05;;;;;;;23.27;7.40;;;;;;;35.56;48.02;96473.56;5020454;28;20029;-82
2023/08/30 07:34:31;;;;;;;13.35;6.43;;;;;;;35.78;46.41;96460.19;5048007;28;20021;-81
2023/08/30 07:36:56;;;;;;;15.95;7.18;;;;;;;35.85;46.28;96469.09;5044566;28;20105;-82
2023/08/30 07:39:22;;;;;;;9.93;6.72;;;;;;;35.32;46.89;96470.50;5045183;28;20089;-82
2023/08/30 07:41:47;;;;;;;14.45;7.40;;;;;;;36.12;45.29;96462.38;5053347;28;20025;-84
2023/08/30 07:44:13;;;;;;;12.13;6.43;;;;;;;35.70;44.52;96454.38;5031921;28;20025;-83
2023/08/30 07:46:38;;;;;;;14.73;6.63;;;;;;;35.51;44.54;96456.03;5041300;28;20068;-82
2023/08/30 07:49:04;;;;;;;14.90;7.10;;;;;;;35.18;45.66;96457.41;5040861;28;20472;-81
2023/08/30 07:51:29;;;;;;;22.90;7.43;;;;;;;36.30;44.14;96459.78;5039791;28;20049;-82
2023/08/30 07:53:55;;;;;;;10.52;5.88;;;;;;;37.05;40.24;96438.25;5030150;28;20112;-82
2023/08/30 07:56:20;;;;;;;14.30;6.07;;;;;;;37.59;39.25;96443.72;5039729;28;20536;-82
2023/08/30 07:58:46;;;;;;;19.65;5.63;;;;;;;38.18;37.73;96437.00;5030090;28;20061;-83
2023/08/30 08:01:11;;;;;;;7.07;5.28;;;;;;;38.19;36.86;96435.84;5031434;28;20032;-73
2023/08/30 08:03:37;;;;;;;11.45;6.60;;;;;;;38.20;37.72;96443.09;5037093;28;20029;-73
2023/08/30 08:06:03;;;;;;;10.20;6.22;;;;;;;37.88;38.48;96444.53;5038650;28;20029;-73
2023/08/30 08:08:28;;;;;;;12.07;5.75;;;;;;;38.39;37.48;96436.44;5042501;28;20032;-74
2023/08/30 08:10:54;;;;;;;34.17;7.28;;;;;;;38.17;37.34;96435.31;5045500;28;20074;-74
2023/08/30 08:13:20;;;;;;;13.23;6.70;;;;;;;38.63;36.98;96430.84;5034438;28;20025;-72
2023/08/30 08:15:45;;;;;;;14.13;6.30;;;;;;;38.88;36.74;96436.09;5037487;28;20032;-73
2023/08/30 08:18:11;;;;;;;10.27;5.32;;;;;;;39.36;35.49;96431.19;5031731;28;20033;-73
2023/08/30 08:20:37;;;;;;;13.07;5.88;;;;;;;38.57;36.45;96426.44;5047963;28;20399;-73
2023/08/30 08:23:03;;;;;;;20.15;6.95;;;;;;;38.27;37.39;96426.81;5042933;28;20096;-74
2023/08/30 08:25:29;;;;;;;18.20;6.18;;;;;;;39.01;38.01;96438.13;5019008;28;20410;-74
2023/08/30 08:27:54;;;;;;;9.00;6.03;;;;;;;39.64;36.64;96431.25;5043439;28;20026;-71
2023/08/30 08:30:22;;;;;;;6.75;5.70;;;;;;;39.80;35.61;96427.09;5048344;28;20020;-74
2023/08/30 08:32:48;;;;;;;9.73;5.57;;;;;;;40.66;34.44;96429.03;5039153;28;20053;-74
2023/08/30 08:35:14;;;;;;;10.05;5.75;;;;;;;40.75;34.66;96421.53;5028369;28;20025;-74
2023/08/30 08:37:39;;;;;;;10.68;5.70;;;;;;;39.95;36.20;96424.00;5022292;28;20032;-73
2023/08/30 08:40:08;;;;;;;16.13;6.25;;;;;;;40.47;34.36;96425.47;5042571;28;20467;-74
2023/08/30 08:42:34;;;;;;;9.52;5.68;;;;;;;40.05;34.64;96418.19;5030344;28;20040;-74
2023/08/30 08:45:02;;;;;;;13.60;5.97;;;;;;;41.04;33.03;96424.78;5028188;28;20025;-74
2023/08/30 08:47:30;;;;;;;8.55;5.65;;;;;;;39.53;34.79;96419.41;5058448;27;20100;-73
2023/08/30 08:49:55;;;;;;;8.63;5.60;;;;;;;39.64;34.81;96423.69;5029222;28;20137;-75
2023/08/30 08:52:21;;;;;;;12.60;5.78;;;;;;;38.80;35.22;96419.97;5047261;28;20112;-75
2023/08/30 08:54:47;;;;;;;11.02;5.85;;;;;;;39.92;35.05;96417.03;5045163;28;20061;-72
2023/08/30 08:57:13;;;;;;;11.77;5.97;;;;;;;40.89;33.30;96408.28;5027959;28;20128;-75
2023/08/30 08:59:39;;;;;;;12.82;6.10;;;;;;;41.43;33.01;96412.09;5038189;28;20135;-75
2023/08/30 09:02:04;;;;;;;10.02;5.75;;;;;;;42.26;31.58;96402.84;5044906;28;20461;-75
2023/08/30 09:04:32;;;;;;;12.48;5.75;;;;;;;41.19;32.22;96403.13;5045115;28;20116;-74
2023/08/30 09:07:01;;;;;;;12.07;6.57;;;;;;;41.57;32.12;96405.25;5019287;28;20496;-76
2023/08/30 09:09:27;;;;;;;18.13;7.03;;;;;;;41.52;32.29;96404.56;5030351;28;20037;-74
2023/08/30 09:11:53;;;;;;;22.10;6.88;;;;;;;41.51;32.59;96405.69;5046165;28;20039;-74
2023/08/30 09:14:18;;;;;;;13.63;7.70;;;;;;;40.55;33.54;96399.53;5028377;28;20108;-74
2023/08/30 09:17:03;;;;;;;13.68;6.75;;;;;;;40.66;33.47;96398.16;5032541;28;20405;-75
2023/08/30 09:19:29;;;;;;;11.40;6.40;;;;;;;42.11;32.19;96395.66;5025281;28;20468;-75
2023/08/30 09:21:57;;;;;;;11.43;6.50;;;;;;;42.39;31.14;96390.66;5021260;28;20029;-76
2023/08/30 09:24:23;;;;;;;12.32;6.55;;;;;;;40.19;33.22;96387.38;5022175;28;20120;-76
2023/08/30 09:26:50;;;;;;;27.90;7.95;;;;;;;39.93;33.71;96381.44;5017002;28;20116;-73
2023/08/30 09:29:17;;;;;;;8.88;6.20;;;;;;;38.73;35.93;96396.31;5040752;28;20037;-75
2023/08/30 09:31:43;;;;;;;9.68;6.53;;;;;;;36.91;37.66;96393.44;5044569;28;20077;-74
2023/08/30 09:34:10;;;;;;;12.98;7.60;;;;;;;36.25;38.94;96390.19;5034370;28;20076;-74
2023/08/30 09:36:40;;;;;;;17.65;7.25;;;;;;;35.03;40.75;96397.03;5025006;28;20033;-73
2023/08/30 09:39:07;;;;;;;13.77;6.70;;;;;;;33.81;43.26;96397.72;5007948;28;20053;-73
2023/08/30 09:41:33;;;;;;;13.85;7.30;;;;;;;33.26;45.16;96409.28;5026597;28;20029;-73
2023/08/30 09:44:00;;;;;;;12.90;7.32;;;;;;;33.02;46.78;96410.72;5014505;28;20456;-74
2023/08/30 09:46:26;;;;;;;16.58;7.53;;;;;;;32.77;48.17;96413.25;5025780;28;20029;-81
2023/08/30 09:48:53;;;;;;;16.88;7.93;;;;;;;32.67;49.67;96420.38;5012573;28;20032;-78
2023/08/30 09:51:20;;;;;;;14.55;8.45;;;;;;;32.81;49.58;96419.97;5017490;28;20068;-77
2023/08/30 09:53:49;;;;;;;13.15;6.65;;;;;;;32.21;50.49;96416.25;5046676;28;20405;-82
2023/08/30 09:56:15;;;;;;;10.88;7.45;;;;;;;32.44;50.80;96417.91;5033274;28;20030;-73
2023/08/30 09:58:41;;;;;;;15.50;7.53;;;;;;;32.72;50.90;96423.22;5024167;28;20522;-73
2023/08/30 10:01:07;;;;;;;12.98;7.07;;;;;;;32.94;49.06;96416.75;5007698;28;20025;-73
2023/08/30 10:03:34;;;;;;;12.35;7.00;;;;;;;32.96;48.90;96412.63;5025620;28;20070;-72
2023/08/30 10:06:02;;;;;;;9.77;7.35;;;;;;;32.65;49.81;96418.97;5024271;28;20025;-72
2023/08/30 10:08:30;;;;;;;13.57;7.13;;;;;;;32.57;48.98;96403.66;5023426;28;20041;-74
2023/08/30 10:10:58;;;;;;;11.70;7.47;;;;;;;32.50;49.31;96411.31;5023839;28;20030;-72
2023/08/30 10:13:25;;;;;;;11.63;7.13;;;;;;;32.39;49.44;96414.25;5024078;28;20504;-73
2023/08/30 10:15:53;;;;;;;12.48;6.82;;;;;;;32.33;50.10;96410.59;5024149;28;20465;-74
2023/08/30 10:18:20;;;;;;;16.85;7.70;;;;;;;32.85;49.76;96415.56;5023930;28;20033;-73
2023/08/30 10:20:46;;;;;;;18.05;6.78;;;;;;;35.35;44.79;96394.81;5036706;28;20037;-73
2023/08/30 10:23:13;;;;;;;9.60;6.55;;;;;;;37.69;39.14;96382.16;5043676;28;20033;-72
2023/08/30 10:25:39;;;;;;;29.98;7.45;;;;;;;39.62;36.23;96380.31;5043047;28;20081;-74
2023/08/30 10:28:04;;;;;;;13.98;6.13;;;;;;;40.16;34.83;96372.03;5024315;28;20440;-73
2023/08/30 10:30:31;;;;;;;12.02;7.57;;;;;;;39.93;34.66;96365.44;5023553;28;20026;-72
2023/08/30 10:32:56;;;;;;;10.93;6.72;;;;;;;38.49;36.72;96374.81;5023027;28;20179;-72
2023/08/30 10:35:22;;;;;;;12.10;6.38;;;;;;;36.66;39.07;96370.47;5031100;28;20116;-72
2023/08/30 10:37:59;;;;;;;11.20;6.05;;;;;;;37.12;38.89;96365.41;5027139;28;20463;-73
2023/08/30 10:40:25;;;;;;;9.93;6.57;;;;;;;39.04;35.85;96353.56;5026143;28;20022;-72
2023/08/30 10:43:03;;;;;;;10.68;7.22;;;;;;;39.02;35.83;96369.84;5036073;28;20032;-73
2023/08/30 10:45:30;;;;;;;17.40;6.65;;;;;;;38.40;36.46;96370.19;5043425;28;20089;-73
2023/08/30 10:47:57;;;;;;;9.73;6.47;;;;;;;38.65;35.95;96361.44;5043605;28;20124;-73
2023/08/30 10:50:29;;;;;;;10.05;7.47;;;;;;;38.02;36.72;96363.69;5043552;28;20056;-73
2023/08/30 10:52:55;;;;;;;12.48;5.63;;;;;;;37.14;37.21;96363.16;5043089;28;20033;-74
2023/08/30 10:55:22;;;;;;;12.00;6.60;;;;;;;36.41;38.97;96365.84;5043485;28;20067;-74
2023/08/30 10:57:59;;;;;;;8.45;6.07;;;;;;;35.75;39.73;96366.09;5044914;28;20108;-73
2023/08/30 11:00:27;;;;;;;10.93;7.20;;;;;;;35.34;40.50;96367.31;5043168;28;20029;-74
2023/08/30 11:02:53;;;;;;;11.40;6.85;;;;;;;34.94;41.59;96373.69;5023586;28;20021;-73
2023/08/30 11:05:24;;;;;;;10.45;6.57;;;;;;;33.75;42.77;96366.34;5023559;28;20026;-72
2023/08/30 11:07:51;;;;;;;11.32;6.22;;;;;;;34.20;42.90;96373.25;5026866;28;20407;-74
2023/08/30 11:10:17;;;;;;;9.18;5.90;;;;;;;34.75;41.67;96361.44;5026958;28;20488;-73
2023/08/30 11:12:44;;;;;;;10.98;5.85;;;;;;;35.57;40.46;96358.38;5043837;28;20036;-73
2023/08/30 11:15:10;;;;;;;14.20;6.40;;;;;;;37.38;37.71;96348.13;5034674;28;20025;-72
2023/08/30 11:17:36;;;;;;;15.57;6.05;;;;;;;37.57;36.56;96339.03;5033962;28;20037;-73